sensor_id;sensor_type;location;lat;lon;timestamp;temperature;humidity
60723;DHT22;46574;52.818;6.516;2024-01-15T00:02:13;2.10;99.90
60723;DHT22;46574;52.818;6.516;2024-01-15T00:04:39;2.10;99.90
60723;DHT22;46574;52.818;6.516;2024-01-15T00:07:09;2.10;99.90
60723;DHT22;46574;52.818;6.516;2024-01-15T00:09:35;2.20;99.90
60723;DHT22;46574;52.818;6.516;2024-01-15T00:12:01;2.30;99.90
60723;DHT22;46574;52.818;6.516;2024-01-15T00:14:28;2.20;99.90
60723;DHT22;46574;52.818;6.516;2024-01-15T00:16:55;2.20;99.90
60723;DHT22;46574;52.818;6.516;2024-01-15T00:19:21;2.20;99.90
60723;DHT22;46574;52.818;6.516;2024-01-15T00:21:47;2.20;99.90
60723;DHT22;46574;52.818;6.516;2024-01-15T00:24:13;2.20;99.90
60723;DHT22;46574;52.818;6.516;2024-01-15T00:26:39;2.20;99.90
60723;DHT22;46574;52.818;6.516;2024-01-15T00:29:06;2.20;99.90
60723;DHT22;46574;52.818;6.516;2024-01-15T00:31:32;2.20;99.90
60723;DHT22;46574;52.818;6.516;2024-01-15T00:33:58;2.20;99.90
60723;DHT22;46574;52.818;6.516;2024-01-15T00:36:23;2.20;99.90
60723;DHT22;46574;52.818;6.516;2024-01-15T00:38:49;2.20;99.90
60723;DHT22;46574;52.818;6.516;2024-01-15T00:41:15;2.20;99.90
60723;DHT22;46574;52.818;6.516;2024-01-15T00:43:41;2.20;99.90
60723;DHT22;46574;52.818;6.516;2024-01-15T00:46:07;2.20;99.90
60723;DHT22;46574;52.818;6.516;2024-01-15T00:48:32;2.30;99.90
60723;DHT22;46574;52.818;6.516;2024-01-15T00:50:58;2.30;99.90
60723;DHT22;46574;52.818;6.516;2024-01-15T00:53:25;2.20;99.90
60723;DHT22;46574;52.818;6.516;2024-01-15T00:55:50;2.20;99.90
60723;DHT22;46574;52.818;6.516;2024-01-15T00:58:16;2.20;99.90
60723;DHT22;46574;52.818;6.516;2024-01-15T01:00:42;2.20;99.90
60723;DHT22;46574;52.818;6.516;2024-01-15T01:03:08;2.20;99.90
60723;DHT22;46574;52.818;6.516;2024-01-15T01:05:34;2.20;99.90
60723;DHT22;46574;52.818;6.516;2024-01-15T01:08:00;2.30;99.90
60723;DHT22;46574;52.818;6.516;2024-01-15T01:10:27;2.30;99.90
60723;DHT22;46574;52.818;6.516;2024-01-15T01:12:52;2.20;99.90
60723;DHT22;46574;52.818;6.516;2024-01-15T01:15:18;2.30;99.90
60723;DHT22;46574;52.818;6.516;2024-01-15T01:17:44;2.30;99.90
60723;DHT22;46574;52.818;6.516;2024-01-15T01:20:10;2.30;99.90
60723;DHT22;46574;52.818;6.516;2024-01-15T01:22:36;2.40;99.90
60723;DHT22;46574;52.818;6.516;2024-01-15T01:25:02;2.40;99.90
60723;DHT22;46574;52.818;6.516;2024-01-15T01:27:28;2.50;99.90
60723;DHT22;46574;52.818;6.516;2024-01-15T01:29:54;2.50;99.90
60723;DHT22;46574;52.818;6.516;2024-01-15T01:32:20;2.50;99.90
60723;DHT22;46574;52.818;6.516;2024-01-15T01:34:46;2.50;99.90
60723;DHT22;46574;52.818;6.516;2024-01-15T01:37:12;2.40;99.90
60723;DHT22;46574;52.818;6.516;2024-01-15T01:39:39;2.30;99.90
60723;DHT22;46574;52.818;6.516;2024-01-15T01:42:05;2.30;99.90
60723;DHT22;46574;52.818;6.516;2024-01-15T01:44:30;2.30;99.90
60723;DHT22;46574;52.818;6.516;2024-01-15T01:46:58;2.20;99.90
60723;DHT22;46574;52.818;6.516;2024-01-15T01:49:25;2.20;99.90
60723;DHT22;46574;52.818;6.516;2024-01-15T01:51:51;2.10;99.90
60723;DHT22;46574;52.818;6.516;2024-01-15T01:54:18;2.00;99.90
60723;DHT22;46574;52.818;6.516;2024-01-15T01:56:46;2.00;99.90
60723;DHT22;46574;52.818;6.516;2024-01-15T01:59:12;2.00;99.90
60723;DHT22;46574;52.818;6.516;2024-01-15T02:01:39;2.00;99.90
60723;DHT22;46574;52.818;6.516;2024-01-15T02:04:06;1.90;99.90
60723;DHT22;46574;52.818;6.516;2024-01-15T02:06:31;1.90;99.90
60723;DHT22;46574;52.818;6.516;2024-01-15T02:08:57;1.90;99.90
60723;DHT22;46574;52.818;6.516;2024-01-15T02:11:23;2.00;99.90
60723;DHT22;46574;52.818;6.516;2024-01-15T02:13:49;2.00;99.90
60723;DHT22;46574;52.818;6.516;2024-01-15T02:16:14;2.10;99.90
60723;DHT22;46574;52.818;6.516;2024-01-15T02:18:44;2.10;99.90
60723;DHT22;46574;52.818;6.516;2024-01-15T02:21:11;2.20;99.90
60723;DHT22;46574;52.818;6.516;2024-01-15T02:23:37;2.20;99.90
60723;DHT22;46574;52.818;6.516;2024-01-15T02:26:04;2.20;99.90
60723;DHT22;46574;52.818;6.516;2024-01-15T02:28:30;2.20;99.90
60723;DHT22;46574;52.818;6.516;2024-01-15T02:30:56;2.30;99.90
60723;DHT22;46574;52.818;6.516;2024-01-15T02:33:22;2.20;99.90
60723;DHT22;46574;52.818;6.516;2024-01-15T02:35:48;2.30;99.90
60723;DHT22;46574;52.818;6.516;2024-01-15T02:38:15;2.30;99.90
60723;DHT22;46574;52.818;6.516;2024-01-15T02:40:42;2.30;99.90
60723;DHT22;46574;52.818;6.516;2024-01-15T02:43:08;2.40;99.90
60723;DHT22;46574;52.818;6.516;2024-01-15T02:45:34;2.50;99.90
60723;DHT22;46574;52.818;6.516;2024-01-15T02:48:00;2.40;99.90
60723;DHT22;46574;52.818;6.516;2024-01-15T02:50:25;2.40;99.90
60723;DHT22;46574;52.818;6.516;2024-01-15T02:52:51;2.30;99.90
60723;DHT22;46574;52.818;6.516;2024-01-15T02:55:17;2.30;99.90
60723;DHT22;46574;52.818;6.516;2024-01-15T02:57:43;2.40;99.90
60723;DHT22;46574;52.818;6.516;2024-01-15T03:00:09;2.40;99.90
60723;DHT22;46574;52.818;6.516;2024-01-15T03:02:39;2.40;99.90
60723;DHT22;46574;52.818;6.516;2024-01-15T03:05:06;2.40;99.90
60723;DHT22;46574;52.818;6.516;2024-01-15T03:07:33;2.40;99.90
60723;DHT22;46574;52.818;6.516;2024-01-15T03:09:59;2.40;99.90
60723;DHT22;46574;52.818;6.516;2024-01-15T03:12:25;2.30;99.90
60723;DHT22;46574;52.818;6.516;2024-01-15T03:14:50;2.30;99.90
60723;DHT22;46574;52.818;6.516;2024-01-15T03:17:16;2.40;99.90
60723;DHT22;46574;52.818;6.516;2024-01-15T03:19:42;2.40;99.90
60723;DHT22;46574;52.818;6.516;2024-01-15T03:22:07;2.30;99.90
60723;DHT22;46574;52.818;6.516;2024-01-15T03:24:34;2.30;99.90
60723;DHT22;46574;52.818;6.516;2024-01-15T03:27:00;2.30;99.90
60723;DHT22;46574;52.818;6.516;2024-01-15T03:29:26;2.20;99.90
60723;DHT22;46574;52.818;6.516;2024-01-15T03:31:52;2.20;99.90
60723;DHT22;46574;52.818;6.516;2024-01-15T03:34:18;2.20;99.90
60723;DHT22;46574;52.818;6.516;2024-01-15T03:36:43;2.20;99.90
60723;DHT22;46574;52.818;6.516;2024-01-15T03:39:09;2.20;99.90
60723;DHT22;46574;52.818;6.516;2024-01-15T03:41:35;2.20;99.90
60723;DHT22;46574;52.818;6.516;2024-01-15T03:44:00;2.40;99.90
60723;DHT22;46574;52.818;6.516;2024-01-15T03:46:27;2.40;99.90
60723;DHT22;46574;52.818;6.516;2024-01-15T03:48:52;2.40;99.90
60723;DHT22;46574;52.818;6.516;2024-01-15T03:51:18;2.40;99.90
60723;DHT22;46574;52.818;6.516;2024-01-15T03:53:44;2.40;99.90
60723;DHT22;46574;52.818;6.516;2024-01-15T03:56:10;2.40;99.90
60723;DHT22;46574;52.818;6.516;2024-01-15T03:58:36;2.40;99.90
60723;DHT22;46574;52.818;6.516;2024-01-15T04:01:02;2.30;99.90
60723;DHT22;46574;52.818;6.516;2024-01-15T04:03:27;2.30;99.90
60723;DHT22;46574;52.818;6.516;2024-01-15T04:05:53;2.40;99.90
60723;DHT22;46574;52.818;6.516;2024-01-15T04:08:19;2.30;99.90
60723;DHT22;46574;52.818;6.516;2024-01-15T04:10:44;2.30;99.90
60723;DHT22;46574;52.818;6.516;2024-01-15T04:13:10;2.30;99.90
60723;DHT22;46574;52.818;6.516;2024-01-15T04:15:36;2.30;99.90
60723;DHT22;46574;52.818;6.516;2024-01-15T04:18:02;2.30;99.90
60723;DHT22;46574;52.818;6.516;2024-01-15T04:20:28;2.30;99.90
60723;DHT22;46574;52.818;6.516;2024-01-15T04:22:53;2.30;99.90
60723;DHT22;46574;52.818;6.516;2024-01-15T04:25:19;2.30;99.90
60723;DHT22;46574;52.818;6.516;2024-01-15T04:27:45;2.30;99.90
60723;DHT22;46574;52.818;6.516;2024-01-15T04:30:11;2.30;99.90
60723;DHT22;46574;52.818;6.516;2024-01-15T04:32:36;2.30;99.90
60723;DHT22;46574;52.818;6.516;2024-01-15T04:35:02;2.30;99.90
60723;DHT22;46574;52.818;6.516;2024-01-15T04:37:28;2.30;99.90
60723;DHT22;46574;52.818;6.516;2024-01-15T04:39:53;2.30;99.90
60723;DHT22;46574;52.818;6.516;2024-01-15T04:42:22;2.30;99.90
60723;DHT22;46574;52.818;6.516;2024-01-15T04:44:47;2.30;99.90
60723;DHT22;46574;52.818;6.516;2024-01-15T04:47:13;2.40;99.90
60723;DHT22;46574;52.818;6.516;2024-01-15T04:49:38;2.40;99.90
60723;DHT22;46574;52.818;6.516;2024-01-15T04:52:04;2.50;99.90
60723;DHT22;46574;52.818;6.516;2024-01-15T04:54:30;2.50;99.90
60723;DHT22;46574;52.818;6.516;2024-01-15T04:56:55;2.50;99.90
60723;DHT22;46574;52.818;6.516;2024-01-15T04:59:21;2.50;99.90
60723;DHT22;46574;52.818;6.516;2024-01-15T05:01:47;2.60;99.90
60723;DHT22;46574;52.818;6.516;2024-01-15T05:04:14;2.50;99.90
60723;DHT22;46574;52.818;6.516;2024-01-15T05:06:40;2.40;99.90
60723;DHT22;46574;52.818;6.516;2024-01-15T05:09:05;2.40;99.90
60723;DHT22;46574;52.818;6.516;2024-01-15T05:11:31;2.40;99.90
60723;DHT22;46574;52.818;6.516;2024-01-15T05:13:56;2.40;99.90
60723;DHT22;46574;52.818;6.516;2024-01-15T05:16:22;2.30;99.90
60723;DHT22;46574;52.818;6.516;2024-01-15T05:18:48;2.30;99.90
60723;DHT22;46574;52.818;6.516;2024-01-15T05:21:13;2.30;99.90
60723;DHT22;46574;52.818;6.516;2024-01-15T05:23:39;2.20;99.90
60723;DHT22;46574;52.818;6.516;2024-01-15T05:26:05;2.20;99.90
60723;DHT22;46574;52.818;6.516;2024-01-15T05:28:30;2.20;99.90
60723;DHT22;46574;52.818;6.516;2024-01-15T05:30:56;2.10;99.90
60723;DHT22;46574;52.818;6.516;2024-01-15T05:33:23;2.10;99.90
60723;DHT22;46574;52.818;6.516;2024-01-15T05:35:48;2.10;99.90
60723;DHT22;46574;52.818;6.516;2024-01-15T05:38:18;2.10;99.90
60723;DHT22;46574;52.818;6.516;2024-01-15T05:40:44;2.10;99.90
60723;DHT22;46574;52.818;6.516;2024-01-15T05:43:10;2.10;99.90
60723;DHT22;46574;52.818;6.516;2024-01-15T05:45:37;2.10;99.90
60723;DHT22;46574;52.818;6.516;2024-01-15T05:48:03;2.10;99.90
60723;DHT22;46574;52.818;6.516;2024-01-15T05:50:29;2.10;99.90
60723;DHT22;46574;52.818;6.516;2024-01-15T05:52:55;2.10;99.90
60723;DHT22;46574;52.818;6.516;2024-01-15T05:55:20;2.10;99.90
60723;DHT22;46574;52.818;6.516;2024-01-15T05:57:46;2.10;99.90
60723;DHT22;46574;52.818;6.516;2024-01-15T06:00:12;2.10;99.90
60723;DHT22;46574;52.818;6.516;2024-01-15T06:02:38;2.10;99.90
60723;DHT22;46574;52.818;6.516;2024-01-15T06:05:05;2.10;99.90
60723;DHT22;46574;52.818;6.516;2024-01-15T06:07:33;2.00;99.90
60723;DHT22;46574;52.818;6.516;2024-01-15T06:09:58;2.00;99.90
60723;DHT22;46574;52.818;6.516;2024-01-15T06:12:24;1.90;99.90
60723;DHT22;46574;52.818;6.516;2024-01-15T06:14:50;1.90;99.90
60723;DHT22;46574;52.818;6.516;2024-01-15T06:17:15;1.90;99.90
60723;DHT22;46574;52.818;6.516;2024-01-15T06:19:41;1.90;99.90
60723;DHT22;46574;52.818;6.516;2024-01-15T06:22:06;1.90;99.90
60723;DHT22;46574;52.818;6.516;2024-01-15T06:24:32;1.80;99.90
60723;DHT22;46574;52.818;6.516;2024-01-15T06:26:58;1.90;99.90
60723;DHT22;46574;52.818;6.516;2024-01-15T06:29:25;1.80;99.90
60723;DHT22;46574;52.818;6.516;2024-01-15T06:31:52;1.90;99.90
60723;DHT22;46574;52.818;6.516;2024-01-15T06:34:17;1.80;99.90
60723;DHT22;46574;52.818;6.516;2024-01-15T06:36:43;1.80;99.90
60723;DHT22;46574;52.818;6.516;2024-01-15T06:39:08;1.70;99.90
60723;DHT22;46574;52.818;6.516;2024-01-15T06:41:35;1.70;99.90
60723;DHT22;46574;52.818;6.516;2024-01-15T06:44:06;1.60;99.90
60723;DHT22;46574;52.818;6.516;2024-01-15T06:46:32;1.60;99.90
60723;DHT22;46574;52.818;6.516;2024-01-15T06:48:58;1.50;99.90
60723;DHT22;46574;52.818;6.516;2024-01-15T06:51:23;1.50;99.90
60723;DHT22;46574;52.818;6.516;2024-01-15T06:53:49;1.50;99.90
60723;DHT22;46574;52.818;6.516;2024-01-15T06:56:15;1.50;99.90
60723;DHT22;46574;52.818;6.516;2024-01-15T06:58:40;1.50;99.90
60723;DHT22;46574;52.818;6.516;2024-01-15T07:01:06;1.40;99.90
60723;DHT22;46574;52.818;6.516;2024-01-15T07:03:36;1.50;99.90
60723;DHT22;46574;52.818;6.516;2024-01-15T07:06:03;1.50;99.90
60723;DHT22;46574;52.818;6.516;2024-01-15T07:08:28;1.50;99.90
60723;DHT22;46574;52.818;6.516;2024-01-15T07:10:54;1.50;99.90
60723;DHT22;46574;52.818;6.516;2024-01-15T07:13:19;1.50;99.90
60723;DHT22;46574;52.818;6.516;2024-01-15T07:15:45;1.60;99.90
60723;DHT22;46574;52.818;6.516;2024-01-15T07:18:11;1.60;99.90
60723;DHT22;46574;52.818;6.516;2024-01-15T07:20:36;1.60;99.90
60723;DHT22;46574;52.818;6.516;2024-01-15T07:23:02;1.60;99.90
60723;DHT22;46574;52.818;6.516;2024-01-15T07:25:28;1.60;99.90
60723;DHT22;46574;52.818;6.516;2024-01-15T07:27:54;1.60;99.90
60723;DHT22;46574;52.818;6.516;2024-01-15T07:30:20;1.60;99.90
60723;DHT22;46574;52.818;6.516;2024-01-15T07:32:47;1.70;99.90
60723;DHT22;46574;52.818;6.516;2024-01-15T07:35:14;1.70;99.90
60723;DHT22;46574;52.818;6.516;2024-01-15T07:37:40;1.60;99.90
60723;DHT22;46574;52.818;6.516;2024-01-15T07:40:06;1.60;99.90
60723;DHT22;46574;52.818;6.516;2024-01-15T07:42:34;1.60;99.90
60723;DHT22;46574;52.818;6.516;2024-01-15T07:45:00;1.60;99.90
60723;DHT22;46574;52.818;6.516;2024-01-15T07:47:26;1.60;99.90
60723;DHT22;46574;52.818;6.516;2024-01-15T07:49:53;1.60;99.90
60723;DHT22;46574;52.818;6.516;2024-01-15T07:52:18;1.60;99.90
60723;DHT22;46574;52.818;6.516;2024-01-15T07:54:44;1.60;99.90
60723;DHT22;46574;52.818;6.516;2024-01-15T07:57:10;1.50;99.90
60723;DHT22;46574;52.818;6.516;2024-01-15T07:59:36;1.50;99.90
60723;DHT22;46574;52.818;6.516;2024-01-15T08:02:03;1.50;99.90
60723;DHT22;46574;52.818;6.516;2024-01-15T08:04:28;1.50;99.90
60723;DHT22;46574;52.818;6.516;2024-01-15T08:06:54;1.50;99.90
60723;DHT22;46574;52.818;6.516;2024-01-15T08:09:20;1.50;99.90
60723;DHT22;46574;52.818;6.516;2024-01-15T08:11:46;1.50;99.90
60723;DHT22;46574;52.818;6.516;2024-01-15T08:14:12;1.50;99.90
60723;DHT22;46574;52.818;6.516;2024-01-15T08:16:39;1.40;99.90
60723;DHT22;46574;52.818;6.516;2024-01-15T08:19:04;1.50;99.90
60723;DHT22;46574;52.818;6.516;2024-01-15T08:21:30;1.50;99.90
60723;DHT22;46574;52.818;6.516;2024-01-15T08:23:58;1.40;99.90
60723;DHT22;46574;52.818;6.516;2024-01-15T08:26:24;1.50;99.90
60723;DHT22;46574;52.818;6.516;2024-01-15T08:28:50;1.50;99.90
60723;DHT22;46574;52.818;6.516;2024-01-15T08:31:16;1.50;99.90
60723;DHT22;46574;52.818;6.516;2024-01-15T08:33:42;1.60;99.90
60723;DHT22;46574;52.818;6.516;2024-01-15T08:36:09;1.60;99.90
60723;DHT22;46574;52.818;6.516;2024-01-15T08:38:35;1.60;99.90
60723;DHT22;46574;52.818;6.516;2024-01-15T08:41:00;1.60;99.90
60723;DHT22;46574;52.818;6.516;2024-01-15T08:43:27;1.60;99.90
60723;DHT22;46574;52.818;6.516;2024-01-15T08:45:53;1.60;99.90
60723;DHT22;46574;52.818;6.516;2024-01-15T08:48:18;1.60;99.90
60723;DHT22;46574;52.818;6.516;2024-01-15T08:50:44;1.60;99.90
60723;DHT22;46574;52.818;6.516;2024-01-15T08:53:14;1.70;99.90
60723;DHT22;46574;52.818;6.516;2024-01-15T08:55:40;1.70;99.90
60723;DHT22;46574;52.818;6.516;2024-01-15T08:58:08;1.70;99.90
60723;DHT22;46574;52.818;6.516;2024-01-15T09:00:34;1.80;99.90
60723;DHT22;46574;52.818;6.516;2024-01-15T09:02:59;1.80;99.90
60723;DHT22;46574;52.818;6.516;2024-01-15T09:05:25;1.80;99.90
60723;DHT22;46574;52.818;6.516;2024-01-15T09:07:51;1.80;99.90
60723;DHT22;46574;52.818;6.516;2024-01-15T09:10:20;1.80;99.90
60723;DHT22;46574;52.818;6.516;2024-01-15T09:12:46;1.80;99.90
60723;DHT22;46574;52.818;6.516;2024-01-15T09:15:11;1.80;99.90
60723;DHT22;46574;52.818;6.516;2024-01-15T09:17:37;1.90;99.90
60723;DHT22;46574;52.818;6.516;2024-01-15T09:20:04;2.00;99.90
60723;DHT22;46574;52.818;6.516;2024-01-15T09:22:31;2.10;99.90
60723;DHT22;46574;52.818;6.516;2024-01-15T09:24:57;2.10;99.90
60723;DHT22;46574;52.818;6.516;2024-01-15T09:27:22;2.00;99.90
60723;DHT22;46574;52.818;6.516;2024-01-15T09:29:48;2.00;99.90
60723;DHT22;46574;52.818;6.516;2024-01-15T09:32:14;2.00;99.90
60723;DHT22;46574;52.818;6.516;2024-01-15T09:34:41;2.00;99.90
60723;DHT22;46574;52.818;6.516;2024-01-15T09:37:07;2.00;99.90
60723;DHT22;46574;52.818;6.516;2024-01-15T09:39:32;2.00;99.90
60723;DHT22;46574;52.818;6.516;2024-01-15T09:41:58;1.90;99.90
60723;DHT22;46574;52.818;6.516;2024-01-15T09:44:25;2.00;99.90
60723;DHT22;46574;52.818;6.516;2024-01-15T09:46:52;2.00;99.90
60723;DHT22;46574;52.818;6.516;2024-01-15T09:49:18;2.00;99.90
60723;DHT22;46574;52.818;6.516;2024-01-15T09:51:44;2.00;99.90
60723;DHT22;46574;52.818;6.516;2024-01-15T09:54:10;2.10;99.90
60723;DHT22;46574;52.818;6.516;2024-01-15T09:56:39;2.10;99.90
60723;DHT22;46574;52.818;6.516;2024-01-15T09:59:05;2.20;99.90
60723;DHT22;46574;52.818;6.516;2024-01-15T10:01:32;2.20;99.90
60723;DHT22;46574;52.818;6.516;2024-01-15T10:03:58;2.30;99.90
60723;DHT22;46574;52.818;6.516;2024-01-15T10:06:26;2.30;99.90
60723;DHT22;46574;52.818;6.516;2024-01-15T10:08:54;2.40;99.90
60723;DHT22;46574;52.818;6.516;2024-01-15T10:11:22;2.50;99.90
60723;DHT22;46574;52.818;6.516;2024-01-15T10:13:47;2.50;99.90
60723;DHT22;46574;52.818;6.516;2024-01-15T10:16:19;2.40;99.90
60723;DHT22;46574;52.818;6.516;2024-01-15T10:18:45;2.40;99.90
60723;DHT22;46574;52.818;6.516;2024-01-15T10:21:10;2.30;99.90
60723;DHT22;46574;52.818;6.516;2024-01-15T10:23:36;2.30;99.90
60723;DHT22;46574;52.818;6.516;2024-01-15T10:26:05;2.50;99.90
60723;DHT22;46574;52.818;6.516;2024-01-15T10:28:31;2.50;99.90
60723;DHT22;46574;52.818;6.516;2024-01-15T10:30:58;2.50;99.90
60723;DHT22;46574;52.818;6.516;2024-01-15T10:33:27;2.50;99.90
60723;DHT22;46574;52.818;6.516;2024-01-15T10:35:54;2.40;99.90
60723;DHT22;46574;52.818;6.516;2024-01-15T10:38:24;2.30;99.90
60723;DHT22;46574;52.818;6.516;2024-01-15T10:40:57;2.40;99.90
60723;DHT22;46574;52.818;6.516;2024-01-15T10:43:23;2.50;99.90
60723;DHT22;46574;52.818;6.516;2024-01-15T10:45:50;2.60;99.90
60723;DHT22;46574;52.818;6.516;2024-01-15T10:48:17;2.70;99.90
60723;DHT22;46574;52.818;6.516;2024-01-15T10:50:45;2.60;99.90
60723;DHT22;46574;52.818;6.516;2024-01-15T10:53:12;2.60;99.90
60723;DHT22;46574;52.818;6.516;2024-01-15T10:55:39;2.60;99.90
60723;DHT22;46574;52.818;6.516;2024-01-15T10:58:08;2.70;99.90
60723;DHT22;46574;52.818;6.516;2024-01-15T11:00:35;2.70;99.90
60723;DHT22;46574;52.818;6.516;2024-01-15T11:03:03;2.80;99.90
60723;DHT22;46574;52.818;6.516;2024-01-15T11:05:35;2.90;99.90
60723;DHT22;46574;52.818;6.516;2024-01-15T11:08:02;2.90;99.90
60723;DHT22;46574;52.818;6.516;2024-01-15T11:10:42;2.90;99.90
60723;DHT22;46574;52.818;6.516;2024-01-15T11:16:09;2.90;99.90
60723;DHT22;46574;52.818;6.516;2024-01-15T11:21:24;2.90;99.90
60723;DHT22;46574;52.818;6.516;2024-01-15T11:24:00;2.80;99.90
60723;DHT22;46574;52.818;6.516;2024-01-15T11:26:36;2.90;99.90
60723;DHT22;46574;52.818;6.516;2024-01-15T11:29:07;2.80;99.90
60723;DHT22;46574;52.818;6.516;2024-01-15T11:34:10;2.80;99.90
60723;DHT22;46574;52.818;6.516;2024-01-15T11:42:02;2.90;99.90
60723;DHT22;46574;52.818;6.516;2024-01-15T11:44:29;2.90;99.90
60723;DHT22;46574;52.818;6.516;2024-01-15T11:46:59;2.90;99.90
60723;DHT22;46574;52.818;6.516;2024-01-15T11:52:22;2.90;99.90
60723;DHT22;46574;52.818;6.516;2024-01-15T11:57:52;2.90;99.90
60723;DHT22;46574;52.818;6.516;2024-01-15T12:00:20;2.90;99.90
60723;DHT22;46574;52.818;6.516;2024-01-15T12:02:48;2.90;99.90
60723;DHT22;46574;52.818;6.516;2024-01-15T12:05:15;3.00;99.90
60723;DHT22;46574;52.818;6.516;2024-01-15T12:07:42;3.00;99.90
60723;DHT22;46574;52.818;6.516;2024-01-15T12:10:13;2.90;99.90
60723;DHT22;46574;52.818;6.516;2024-01-15T12:15:21;2.70;99.90
60723;DHT22;46574;52.818;6.516;2024-01-15T12:17:46;2.50;99.90
60723;DHT22;46574;52.818;6.516;2024-01-15T12:20:13;2.30;99.90
60723;DHT22;46574;52.818;6.516;2024-01-15T12:22:39;2.20;99.90
60723;DHT22;46574;52.818;6.516;2024-01-15T12:25:05;2.10;99.90
60723;DHT22;46574;52.818;6.516;2024-01-15T12:27:31;2.20;99.90
60723;DHT22;46574;52.818;6.516;2024-01-15T12:29:58;2.10;99.90
60723;DHT22;46574;52.818;6.516;2024-01-15T12:32:24;2.10;99.90
60723;DHT22;46574;52.818;6.516;2024-01-15T12:34:50;2.10;99.90
60723;DHT22;46574;52.818;6.516;2024-01-15T12:37:19;2.10;99.90
60723;DHT22;46574;52.818;6.516;2024-01-15T12:39:46;2.10;99.90
60723;DHT22;46574;52.818;6.516;2024-01-15T12:42:13;2.10;99.90
60723;DHT22;46574;52.818;6.516;2024-01-15T12:44:39;2.10;99.90
60723;DHT22;46574;52.818;6.516;2024-01-15T12:47:06;2.00;99.90
60723;DHT22;46574;52.818;6.516;2024-01-15T12:49:31;2.10;99.90
60723;DHT22;46574;52.818;6.516;2024-01-15T12:51:58;2.10;99.90
60723;DHT22;46574;52.818;6.516;2024-01-15T12:54:24;2.10;99.90
60723;DHT22;46574;52.818;6.516;2024-01-15T12:56:50;2.10;99.90
60723;DHT22;46574;52.818;6.516;2024-01-15T12:59:17;2.20;99.90
60723;DHT22;46574;52.818;6.516;2024-01-15T13:01:43;2.20;99.90
60723;DHT22;46574;52.818;6.516;2024-01-15T13:04:09;2.20;99.90
60723;DHT22;46574;52.818;6.516;2024-01-15T13:06:38;2.20;99.90
60723;DHT22;46574;52.818;6.516;2024-01-15T13:09:03;2.30;99.90
60723;DHT22;46574;52.818;6.516;2024-01-15T13:11:32;2.50;99.90
60723;DHT22;46574;52.818;6.516;2024-01-15T13:13:58;2.70;99.90
60723;DHT22;46574;52.818;6.516;2024-01-15T13:16:24;2.70;99.90
60723;DHT22;46574;52.818;6.516;2024-01-15T13:18:52;2.60;99.90
60723;DHT22;46574;52.818;6.516;2024-01-15T13:21:18;2.30;99.90
60723;DHT22;46574;52.818;6.516;2024-01-15T13:23:43;2.30;99.90
60723;DHT22;46574;52.818;6.516;2024-01-15T13:26:09;2.40;99.90
60723;DHT22;46574;52.818;6.516;2024-01-15T13:28:35;2.60;99.90
60723;DHT22;46574;52.818;6.516;2024-01-15T13:31:01;2.60;99.90
60723;DHT22;46574;52.818;6.516;2024-01-15T13:33:27;2.60;99.90
60723;DHT22;46574;52.818;6.516;2024-01-15T13:35:53;2.70;99.90
60723;DHT22;46574;52.818;6.516;2024-01-15T13:38:19;2.70;99.90
60723;DHT22;46574;52.818;6.516;2024-01-15T13:40:44;2.70;99.90
60723;DHT22;46574;52.818;6.516;2024-01-15T13:43:11;2.70;99.90
60723;DHT22;46574;52.818;6.516;2024-01-15T13:45:37;2.70;99.90
60723;DHT22;46574;52.818;6.516;2024-01-15T13:48:04;2.60;99.90
60723;DHT22;46574;52.818;6.516;2024-01-15T13:50:36;2.70;99.90
60723;DHT22;46574;52.818;6.516;2024-01-15T13:53:03;2.70;99.90
60723;DHT22;46574;52.818;6.516;2024-01-15T13:55:32;2.70;99.90
60723;DHT22;46574;52.818;6.516;2024-01-15T13:57:57;2.70;99.90
60723;DHT22;46574;52.818;6.516;2024-01-15T14:00:23;2.70;99.90
60723;DHT22;46574;52.818;6.516;2024-01-15T14:02:48;2.80;99.90
60723;DHT22;46574;52.818;6.516;2024-01-15T14:05:14;2.80;99.90
60723;DHT22;46574;52.818;6.516;2024-01-15T14:07:40;2.80;99.90
60723;DHT22;46574;52.818;6.516;2024-01-15T14:10:07;2.80;99.90
60723;DHT22;46574;52.818;6.516;2024-01-15T14:12:34;2.80;99.90
60723;DHT22;46574;52.818;6.516;2024-01-15T14:15:03;2.90;99.90
60723;DHT22;46574;52.818;6.516;2024-01-15T14:17:29;2.90;99.90
60723;DHT22;46574;52.818;6.516;2024-01-15T14:19:55;2.90;99.90
60723;DHT22;46574;52.818;6.516;2024-01-15T14:22:20;2.80;99.90
60723;DHT22;46574;52.818;6.516;2024-01-15T14:24:46;2.80;99.90
60723;DHT22;46574;52.818;6.516;2024-01-15T14:27:11;2.80;99.90
60723;DHT22;46574;52.818;6.516;2024-01-15T14:29:37;2.80;99.90
60723;DHT22;46574;52.818;6.516;2024-01-15T14:32:03;2.80;99.90
60723;DHT22;46574;52.818;6.516;2024-01-15T14:34:29;2.80;99.90
60723;DHT22;46574;52.818;6.516;2024-01-15T14:36:55;2.70;99.90
60723;DHT22;46574;52.818;6.516;2024-01-15T14:39:24;2.70;99.90
60723;DHT22;46574;52.818;6.516;2024-01-15T14:41:51;2.50;99.90
60723;DHT22;46574;52.818;6.516;2024-01-15T14:44:17;2.50;99.90
60723;DHT22;46574;52.818;6.516;2024-01-15T14:46:42;2.40;99.90
60723;DHT22;46574;52.818;6.516;2024-01-15T14:49:08;2.40;99.90
60723;DHT22;46574;52.818;6.516;2024-01-15T14:51:34;2.40;99.90
60723;DHT22;46574;52.818;6.516;2024-01-15T14:53:59;2.40;99.90
60723;DHT22;46574;52.818;6.516;2024-01-15T14:56:25;2.40;99.90
60723;DHT22;46574;52.818;6.516;2024-01-15T14:58:51;2.40;99.90
60723;DHT22;46574;52.818;6.516;2024-01-15T15:01:16;2.40;99.90
60723;DHT22;46574;52.818;6.516;2024-01-15T15:03:42;2.40;99.90
60723;DHT22;46574;52.818;6.516;2024-01-15T15:06:09;2.40;99.90
60723;DHT22;46574;52.818;6.516;2024-01-15T15:08:38;2.50;99.90
60723;DHT22;46574;52.818;6.516;2024-01-15T15:11:04;2.50;99.90
60723;DHT22;46574;52.818;6.516;2024-01-15T15:13:30;2.50;99.90
60723;DHT22;46574;52.818;6.516;2024-01-15T15:15:55;2.50;99.90
60723;DHT22;46574;52.818;6.516;2024-01-15T15:18:21;2.50;99.90
60723;DHT22;46574;52.818;6.516;2024-01-15T15:20:50;2.50;99.90
60723;DHT22;46574;52.818;6.516;2024-01-15T15:23:17;2.50;99.90
60723;DHT22;46574;52.818;6.516;2024-01-15T15:25:43;2.50;99.90
60723;DHT22;46574;52.818;6.516;2024-01-15T15:28:09;2.50;99.90
60723;DHT22;46574;52.818;6.516;2024-01-15T15:30:37;2.40;99.90
60723;DHT22;46574;52.818;6.516;2024-01-15T15:33:03;2.30;99.90
60723;DHT22;46574;52.818;6.516;2024-01-15T15:35:29;2.20;99.90
60723;DHT22;46574;52.818;6.516;2024-01-15T15:37:54;2.20;99.90
60723;DHT22;46574;52.818;6.516;2024-01-15T15:40:20;2.10;99.90
60723;DHT22;46574;52.818;6.516;2024-01-15T15:42:46;2.00;99.90
60723;DHT22;46574;52.818;6.516;2024-01-15T15:45:12;2.00;99.90
60723;DHT22;46574;52.818;6.516;2024-01-15T15:47:38;2.00;99.90
60723;DHT22;46574;52.818;6.516;2024-01-15T15:50:04;2.00;99.90
60723;DHT22;46574;52.818;6.516;2024-01-15T15:52:30;2.00;99.90
60723;DHT22;46574;52.818;6.516;2024-01-15T15:54:56;2.00;99.90
60723;DHT22;46574;52.818;6.516;2024-01-15T15:57:22;2.10;99.90
60723;DHT22;46574;52.818;6.516;2024-01-15T15:59:48;2.10;99.90
60723;DHT22;46574;52.818;6.516;2024-01-15T16:02:13;2.10;99.90